sensor_id;sensor_type;location;lat;lon;timestamp;pressure;altitude;pressure_sealevel;temperature;humidity
7824;BME280;3957;48.61947800;9.05303100;2022-09-03T00:00:57;95721.63;;;14.34;89.39
7824;BME280;3957;48.61947800;9.05303100;2022-09-03T00:02:42;95720.59;;;14.35;89.92
7824;BME280;3957;48.61947800;9.05303100;2022-09-03T00:04:10;95720.34;;;14.37;92.53
7824;BME280;3957;48.61947800;9.05303100;2022-09-03T00:05:37;95726.28;;;14.39;93.37
7824;BME280;3957;48.61947800;9.05303100;2022-09-03T00:07:04;95718.69;;;14.36;93.23
7824;BME280;3957;48.61947800;9.05303100;2022-09-03T00:08:35;95718.94;;;14.34;91.62
7824;BME280;3957;48.61947800;9.05303100;2022-09-03T00:10:04;95713.31;;;14.36;91.72
7824;BME280;3957;48.61947800;9.05303100;2022-09-03T00:11:32;95717.16;;;14.40;94.59
7824;BME280;3957;48.61947800;9.05303100;2022-09-03T00:13:00;95717.41;;;14.38;96.16
7824;BME280;3957;48.61947800;9.05303100;2022-09-03T00:14:27;95714.16;;;14.36;95.20
7824;BME280;3957;48.61947800;9.05303100;2022-09-03T00:15:54;95714.59;;;14.33;94.15
7824;BME280;3957;48.61947800;9.05303100;2022-09-03T00:17:41;95714.59;;;14.33;92.68
7824;BME280;3957;48.61947800;9.05303100;2022-09-03T00:19:04;95716.50;;;14.33;92.66
7824;BME280;3957;48.61947800;9.05303100;2022-09-03T00:20:41;95714.59;;;14.33;92.71
7824;BME280;3957;48.61947800;9.05303100;2022-09-03T00:22:14;95718.38;;;14.32;92.57
7824;BME280;3957;48.61947800;9.05303100;2022-09-03T00:23:41;95713.78;;;14.33;93.08
7824;BME280;3957;48.61947800;9.05303100;2022-09-03T00:25:08;95710.88;;;14.34;93.20
7824;BME280;3957;48.61947800;9.05303100;2022-09-03T00:26:33;95708.75;;;14.36;93.70
7824;BME280;3957;48.61947800;9.05303100;2022-09-03T00:27:56;95712.03;;;14.38;94.20
7824;BME280;3957;48.61947800;9.05303100;2022-09-03T00:29:28;95707.69;;;14.37;94.73
7824;BME280;3957;48.61947800;9.05303100;2022-09-03T00:32:42;95711.66;;;14.35;93.98
7824;BME280;3957;48.61947800;9.05303100;2022-09-03T00:35:43;95714.59;;;14.33;94.69
7824;BME280;3957;48.61947800;9.05303100;2022-09-03T00:37:08;95718.38;;;14.32;94.95
7824;BME280;3957;48.61947800;9.05303100;2022-09-03T00:38:30;95715.69;;;14.32;95.28
7824;BME280;3957;48.61947800;9.05303100;2022-09-03T00:39:50;95713.78;;;14.33;95.50
7824;BME280;3957;48.61947800;9.05303100;2022-09-03T00:41:35;95713.19;;;14.31;95.88
7824;BME280;3957;48.61947800;9.05303100;2022-09-03T00:43:26;95710.75;;;14.29;95.84
7824;BME280;3957;48.61947800;9.05303100;2022-09-03T00:46:18;95713.34;;;14.24;95.19
7824;BME280;3957;48.61947800;9.05303100;2022-09-03T00:51:20;95710.41;;;14.14;94.00
7824;BME280;3957;48.61947800;9.05303100;2022-09-03T00:52:58;95709.84;;;14.11;94.02
7824;BME280;3957;48.61947800;9.05303100;2022-09-03T00:54:43;95709.50;;;14.08;92.83
7824;BME280;3957;48.61947800;9.05303100;2022-09-03T00:56:24;95707.59;;;14.08;93.28
7824;BME280;3957;48.61947800;9.05303100;2022-09-03T00:57:57;95717.00;;;14.06;93.40
7824;BME280;3957;48.61947800;9.05303100;2022-09-03T01:00:46;95714.19;;;14.01;92.89
7824;BME280;3957;48.61947800;9.05303100;2022-09-03T01:04:04;95711.13;;;13.97;93.84
7824;BME280;3957;48.61947800;9.05303100;2022-09-03T01:05:41;95709.03;;;13.99;94.00
7824;BME280;3957;48.61947800;9.05303100;2022-09-03T01:10:56;95705.88;;;14.02;93.51
7824;BME280;3957;48.61947800;9.05303100;2022-09-03T01:15:37;95701.66;;;14.06;97.64
7824;BME280;3957;48.61947800;9.05303100;2022-09-03T01:17:29;95700.84;;;14.06;98.58
7824;BME280;3957;48.61947800;9.05303100;2022-09-03T01:27:06;95701.41;;;13.96;95.75
7824;BME280;3957;48.61947800;9.05303100;2022-09-03T01:30:30;95699.56;;;13.97;95.77
7824;BME280;3957;48.61947800;9.05303100;2022-09-03T01:32:03;95699.56;;;13.97;96.47
7824;BME280;3957;48.61947800;9.05303100;2022-09-03T01:33:32;95707.03;;;13.94;95.16
7824;BME280;3957;48.61947800;9.05303100;2022-09-03T01:36:49;95704.34;;;13.94;96.63
7824;BME280;3957;48.61947800;9.05303100;2022-09-03T01:41:34;95711.94;;;13.86;95.52
7824;BME280;3957;48.61947800;9.05303100;2022-09-03T01:43:38;95717.44;;;13.79;96.18
7824;BME280;3957;48.61947800;9.05303100;2022-09-03T01:46:42;95716.28;;;13.75;95.46
7824;BME280;3957;48.61947800;9.05303100;2022-09-03T01:49:42;95723.28;;;13.76;95.76
7824;BME280;3957;48.61947800;9.05303100;2022-09-03T01:51:24;95719.31;;;13.78;96.49
7824;BME280;3957;48.61947800;9.05303100;2022-09-03T01:57:52;95719.44;;;13.72;94.61
7824;BME280;3957;48.61947800;9.05303100;2022-09-03T01:59:31;95721.31;;;13.71;94.22
7824;BME280;3957;48.61947800;9.05303100;2022-09-03T02:00:59;95720.72;;;13.69;93.23
7824;BME280;3957;48.61947800;9.05303100;2022-09-03T02:02:25;95719.66;;;13.70;93.23
7824;BME280;3957;48.61947800;9.05303100;2022-09-03T02:03:47;95726.09;;;13.69;93.16
7824;BME280;3957;48.61947800;9.05303100;2022-09-03T02:05:23;95722.34;;;13.70;93.79
7824;BME280;3957;48.61947800;9.05303100;2022-09-03T02:06:46;95725.63;;;13.72;93.88
7824;BME280;3957;48.61947800;9.05303100;2022-09-03T02:08:09;95721.06;;;13.73;94.81
7824;BME280;3957;48.61947800;9.05303100;2022-09-03T02:09:30;95728.31;;;13.72;95.79
7824;BME280;3957;48.61947800;9.05303100;2022-09-03T02:10:53;95730.19;;;13.72;96.67
7824;BME280;3957;48.61947800;9.05303100;2022-09-03T02:12:15;95729.94;;;13.73;95.22
7824;BME280;3957;48.61947800;9.05303100;2022-09-03T02:13:41;95729.03;;;13.80;95.13
7824;BME280;3957;48.61947800;9.05303100;2022-09-03T02:15:11;95731.25;;;13.83;94.60
7824;BME280;3957;48.61947800;9.05303100;2022-09-03T02:16:33;95729.50;;;13.88;93.27
7824;BME280;3957;48.61947800;9.05303100;2022-09-03T02:17:56;95730.19;;;13.95;92.53
7824;BME280;3957;48.61947800;9.05303100;2022-09-03T02:19:19;95721.78;;;14.04;91.90
7824;BME280;3957;48.61947800;9.05303100;2022-09-03T02:20:41;95718.16;;;14.10;91.09
7824;BME280;3957;48.61947800;9.05303100;2022-09-03T02:22:03;95718.25;;;14.15;90.77
7824;BME280;3957;48.61947800;9.05303100;2022-09-03T02:23:24;95724.00;;;14.19;90.66
7824;BME280;3957;48.61947800;9.05303100;2022-09-03T02:24:46;95716.50;;;14.21;90.52
7824;BME280;3957;48.61947800;9.05303100;2022-09-03T02:26:09;95715.69;;;14.20;91.30
7824;BME280;3957;48.61947800;9.05303100;2022-09-03T02:27:31;95718.38;;;14.20;91.76
7824;BME280;3957;48.61947800;9.05303100;2022-09-03T02:28:53;95711.59;;;14.18;92.58
7824;BME280;3957;48.61947800;9.05303100;2022-09-03T02:30:15;95712.63;;;14.17;92.11
7824;BME280;3957;48.61947800;9.05303100;2022-09-03T02:31:38;95711.81;;;14.16;92.21
7824;BME280;3957;48.61947800;9.05303100;2022-09-03T02:32:59;95711.81;;;14.16;92.17
7824;BME280;3957;48.61947800;9.05303100;2022-09-03T02:34:19;95712.31;;;14.13;92.93
7824;BME280;3957;48.61947800;9.05303100;2022-09-03T02:35:41;95712.19;;;14.08;93.74
7824;BME280;3957;48.61947800;9.05303100;2022-09-03T02:37:12;95700.38;;;14.09;94.37
7824;BME280;3957;48.61947800;9.05303100;2022-09-03T02:38:33;95708.69;;;14.07;94.13
7824;BME280;3957;48.61947800;9.05303100;2022-09-03T02:39:54;95709.50;;;14.08;94.57
7824;BME280;3957;48.61947800;9.05303100;2022-09-03T02:41:15;95711.63;;;14.06;94.72
7824;BME280;3957;48.61947800;9.05303100;2022-09-03T02:42:37;95709.13;;;14.04;95.92
7824;BME280;3957;48.61947800;9.05303100;2022-09-03T02:44:08;95706.69;;;14.03;96.50
7824;BME280;3957;48.61947800;9.05303100;2022-09-03T02:45:31;95712.28;;;14.01;96.81
7824;BME280;3957;48.61947800;9.05303100;2022-09-03T02:47:01;95715.47;;;13.98;97.09
7824;BME280;3957;48.61947800;9.05303100;2022-09-03T02:48:23;95707.88;;;13.95;97.57
7824;BME280;3957;48.61947800;9.05303100;2022-09-03T02:49:48;95718.28;;;13.91;98.06
7824;BME280;3957;48.61947800;9.05303100;2022-09-03T02:51:09;95723.28;;;13.88;98.89
7824;BME280;3957;48.61947800;9.05303100;2022-09-03T02:52:29;95721.06;;;13.85;99.58
7824;BME280;3957;48.61947800;9.05303100;2022-09-03T02:53:50;95721.78;;;13.80;99.71
7824;BME280;3957;48.61947800;9.05303100;2022-09-03T02:55:11;95723.28;;;13.76;99.85
7824;BME280;3957;48.61947800;9.05303100;2022-09-03T02:56:32;95723.41;;;13.69;99.85
7824;BME280;3957;48.61947800;9.05303100;2022-09-03T02:57:53;95722.00;;;13.67;100.00
7824;BME280;3957;48.61947800;9.05303100;2022-09-03T02:59:14;95717.78;;;13.59;100.00
7824;BME280;3957;48.61947800;9.05303100;2022-09-03T03:00:36;95713.09;;;13.54;100.00
7824;BME280;3957;48.61947800;9.05303100;2022-09-03T03:01:57;95711.69;;;13.52;100.00
7824;BME280;3957;48.61947800;9.05303100;2022-09-03T03:03:17;95713.00;;;13.49;100.00
7824;BME280;3957;48.61947800;9.05303100;2022-09-03T03:04:39;95716.13;;;13.46;100.00
7824;BME280;3957;48.61947800;9.05303100;2022-09-03T03:06:02;95710.75;;;13.46;100.00
7824;BME280;3957;48.61947800;9.05303100;2022-09-03T03:07:24;95719.03;;;13.44;100.00
7824;BME280;3957;48.61947800;9.05303100;2022-09-03T03:08:47;95719.75;;;13.40;100.00
7824;BME280;3957;48.61947800;9.05303100;2022-09-03T03:10:09;95714.13;;;13.41;100.00
7824;BME280;3957;48.61947800;9.05303100;2022-09-03T03:11:30;95707.59;;;13.37;100.00
7824;BME280;3957;48.61947800;9.05303100;2022-09-03T03:12:51;95709.06;;;13.33;100.00
7824;BME280;3957;48.61947800;9.05303100;2022-09-03T03:14:12;95715.72;;;13.31;100.00
7824;BME280;3957;48.61947800;9.05303100;2022-09-03T03:15:32;95718.63;;;13.29;100.00
7824;BME280;3957;48.61947800;9.05303100;2022-09-03T03:16:53;95718.63;;;13.29;100.00
7824;BME280;3957;48.61947800;9.05303100;2022-09-03T03:18:14;95713.63;;;13.33;100.00
7824;BME280;3957;48.61947800;9.05303100;2022-09-03T03:19:36;95710.69;;;13.34;100.00
7824;BME280;3957;48.61947800;9.05303100;2022-09-03T03:21:05;95712.94;;;13.37;100.00
7824;BME280;3957;48.61947800;9.05303100;2022-09-03T03:22:26;95709.00;;;13.40;100.00
7824;BME280;3957;48.61947800;9.05303100;2022-09-03T03:23:47;95716.81;;;13.41;100.00
7824;BME280;3957;48.61947800;9.05303100;2022-09-03T03:25:08;95715.78;;;13.42;100.00
7824;BME280;3957;48.61947800;9.05303100;2022-09-03T03:26:29;95713.66;;;13.44;100.00
7824;BME280;3957;48.61947800;9.05303100;2022-09-03T03:27:50;95712.63;;;13.46;100.00
7824;BME280;3957;48.61947800;9.05303100;2022-09-03T03:29:15;95717.19;;;13.45;100.00
7824;BME280;3957;48.61947800;9.05303100;2022-09-03T03:30:40;95723.59;;;13.44;100.00
7824;BME280;3957;48.61947800;9.05303100;2022-09-03T03:32:02;95717.75;;;13.47;100.00
7824;BME280;3957;48.61947800;9.05303100;2022-09-03T03:33:22;95722.44;;;13.52;100.00
7824;BME280;3957;48.61947800;9.05303100;2022-09-03T03:34:43;95723.38;;;13.57;100.00
7824;BME280;3957;48.61947800;9.05303100;2022-09-03T03:36:13;95726.44;;;13.61;100.00
7824;BME280;3957;48.61947800;9.05303100;2022-09-03T03:37:34;95723.50;;;13.63;100.00
7824;BME280;3957;48.61947800;9.05303100;2022-09-03T03:38:57;95727.03;;;13.63;100.00
7824;BME280;3957;48.61947800;9.05303100;2022-09-03T03:40:18;95728.06;;;13.62;100.00
7824;BME280;3957;48.61947800;9.05303100;2022-09-03T03:41:39;95725.72;;;13.66;100.00
7824;BME280;3957;48.61947800;9.05303100;2022-09-03T03:43:00;95729.81;;;13.68;100.00
7824;BME280;3957;48.61947800;9.05303100;2022-09-03T03:44:21;95724.22;;;13.70;100.00
7824;BME280;3957;48.61947800;9.05303100;2022-09-03T03:45:41;95724.22;;;13.70;100.00
7824;BME280;3957;48.61947800;9.05303100;2022-09-03T03:47:02;95728.31;;;13.72;100.00
7824;BME280;3957;48.61947800;9.05303100;2022-09-03T03:48:25;95731.84;;;13.73;100.00
7824;BME280;3957;48.61947800;9.05303100;2022-09-03T03:49:46;95722.13;;;13.72;100.00
7824;BME280;3957;48.61947800;9.05303100;2022-09-03T03:51:08;95726.91;;;13.70;100.00
7824;BME280;3957;48.61947800;9.05303100;2022-09-03T03:52:29;95734.16;;;13.69;100.00
7824;BME280;3957;48.61947800;9.05303100;2022-09-03T03:53:53;95726.09;;;13.69;100.00
7824;BME280;3957;48.61947800;9.05303100;2022-09-03T03:55:15;95730.66;;;13.69;100.00
7824;BME280;3957;48.61947800;9.05303100;2022-09-03T03:56:35;95731.47;;;13.69;100.00
7824;BME280;3957;48.61947800;9.05303100;2022-09-03T03:57:57;95733.34;;;13.69;100.00
7824;BME280;3957;48.61947800;9.05303100;2022-09-03T03:59:18;95733.69;;;13.72;100.00
7824;BME280;3957;48.61947800;9.05303100;2022-09-03T04:00:39;95736.75;;;13.76;100.00
7824;BME280;3957;48.61947800;9.05303100;2022-09-03T04:01:59;95731.94;;;13.78;100.00
7824;BME280;3957;48.61947800;9.05303100;2022-09-03T04:03:20;95735.47;;;13.78;100.00
7824;BME280;3957;48.61947800;9.05303100;2022-09-03T04:04:41;95736.03;;;13.81;100.00
7824;BME280;3957;48.61947800;9.05303100;2022-09-03T04:06:02;95739.31;;;13.83;100.00
7824;BME280;3957;48.61947800;9.05303100;2022-09-03T04:07:24;95735.78;;;13.82;100.00
7824;BME280;3957;48.61947800;9.05303100;2022-09-03T04:08:46;95741.16;;;13.82;100.00
7824;BME280;3957;48.61947800;9.05303100;2022-09-03T04:10:07;95749.03;;;13.84;100.00
7824;BME280;3957;48.61947800;9.05303100;2022-09-03T04:11:28;95745.28;;;13.85;100.00
7824;BME280;3957;48.61947800;9.05303100;2022-09-03T04:12:53;95740.50;;;13.87;100.00
7824;BME280;3957;48.61947800;9.05303100;2022-09-03T04:14:13;95735.91;;;13.87;100.00
7824;BME280;3957;48.61947800;9.05303100;2022-09-03T04:15:34;95739.66;;;13.86;100.00
7824;BME280;3957;48.61947800;9.05303100;2022-09-03T04:16:56;95737.22;;;13.85;100.00
7824;BME280;3957;48.61947800;9.05303100;2022-09-03T04:18:17;95734.75;;;13.83;100.00
7824;BME280;3957;48.61947800;9.05303100;2022-09-03T04:19:38;95733.94;;;13.83;100.00
7824;BME280;3957;48.61947800;9.05303100;2022-09-03T04:21:03;95734.63;;;13.78;100.00
7824;BME280;3957;48.61947800;9.05303100;2022-09-03T04:22:27;95735.47;;;13.78;100.00
7824;BME280;3957;48.61947800;9.05303100;2022-09-03T04:23:49;95734.84;;;13.76;100.00
7824;BME280;3957;48.61947800;9.05303100;2022-09-03T04:25:10;95734.28;;;13.74;100.00
7824;BME280;3957;48.61947800;9.05303100;2022-09-03T04:26:32;95738.63;;;13.75;100.00
7824;BME280;3957;48.61947800;9.05303100;2022-09-03T04:27:53;95738.03;;;13.73;100.00
7824;BME280;3957;48.61947800;9.05303100;2022-09-03T04:29:14;95742.34;;;13.74;100.00
7824;BME280;3957;48.61947800;9.05303100;2022-09-03T04:30:36;95732.63;;;13.73;100.00
7824;BME280;3957;48.61947800;9.05303100;2022-09-03T04:31:57;95732.16;;;13.76;100.00
7824;BME280;3957;48.61947800;9.05303100;2022-09-03T04:33:37;95735.47;;;13.78;100.00
7824;BME280;3957;48.61947800;9.05303100;2022-09-03T04:34:57;95738.72;;;13.81;100.00
7824;BME280;3957;48.61947800;9.05303100;2022-09-03T04:36:20;95737.91;;;13.80;100.00
7824;BME280;3957;48.61947800;9.05303100;2022-09-03T04:37:41;95738.72;;;13.81;100.00
7824;BME280;3957;48.61947800;9.05303100;2022-09-03T04:39:02;95740.00;;;13.78;100.00
7824;BME280;3957;48.61947800;9.05303100;2022-09-03T04:40:23;95732.16;;;13.76;100.00
7824;BME280;3957;48.61947800;9.05303100;2022-09-03T04:41:43;95737.31;;;13.78;100.00
7824;BME280;3957;48.61947800;9.05303100;2022-09-03T04:43:05;95736.50;;;13.77;100.00
7824;BME280;3957;48.61947800;9.05303100;2022-09-03T04:44:26;95735.22;;;13.80;100.00
7824;BME280;3957;48.61947800;9.05303100;2022-09-03T04:45:46;95729.59;;;13.82;100.00
7824;BME280;3957;48.61947800;9.05303100;2022-09-03T04:47:07;95738.28;;;13.84;100.00
7824;BME280;3957;48.61947800;9.05303100;2022-09-03T04:48:29;95729.75;;;13.87;100.00
7824;BME280;3957;48.61947800;9.05303100;2022-09-03T04:49:50;95737.09;;;13.91;100.00
7824;BME280;3957;48.61947800;9.05303100;2022-09-03T04:51:13;95734.53;;;13.97;100.00
7824;BME280;3957;48.61947800;9.05303100;2022-09-03T04:52:34;95733.81;;;14.01;100.00
7824;BME280;3957;48.61947800;9.05303100;2022-09-03T04:53:57;95733.34;;;14.04;100.00
7824;BME280;3957;48.61947800;9.05303100;2022-09-03T04:55:18;95734.31;;;14.10;100.00
7824;BME280;3957;48.61947800;9.05303100;2022-09-03T04:56:39;95734.16;;;14.17;100.00
7824;BME280;3957;48.61947800;9.05303100;2022-09-03T04:58:00;95744.25;;;14.21;100.00
7824;BME280;3957;48.61947800;9.05303100;2022-09-03T04:59:21;95740.03;;;14.25;100.00
7824;BME280;3957;48.61947800;9.05303100;2022-09-03T05:00:41;95746.34;;;14.31;100.00
7824;BME280;3957;48.61947800;9.05303100;2022-09-03T05:02:02;95741.88;;;14.37;100.00
7824;BME280;3957;48.61947800;9.05303100;2022-09-03T05:03:23;95737.41;;;14.42;100.00
7824;BME280;3957;48.61947800;9.05303100;2022-09-03T05:04:44;95736.94;;;14.45;100.00
7824;BME280;3957;48.61947800;9.05303100;2022-09-03T05:06:06;95733.78;;;14.49;100.00
7824;BME280;3957;48.61947800;9.05303100;2022-09-03T05:07:29;95736.00;;;14.52;100.00
7824;BME280;3957;48.61947800;9.05303100;2022-09-03T05:08:58;95728.50;;;14.54;100.00
7824;BME280;3957;48.61947800;9.05303100;2022-09-03T05:10:19;95731.78;;;14.56;100.00
7824;BME280;3957;48.61947800;9.05303100;2022-09-03T05:11:40;95729.09;;;14.56;100.00
7824;BME280;3957;48.61947800;9.05303100;2022-09-03T05:13:03;95726.41;;;14.56;100.00
7824;BME280;3957;48.61947800;9.05303100;2022-09-03T05:14:24;95725.56;;;14.55;100.00
7824;BME280;3957;48.61947800;9.05303100;2022-09-03T05:15:45;95736.91;;;14.57;100.00
7824;BME280;3957;48.61947800;9.05303100;2022-09-03T05:17:06;95732.34;;;14.58;100.00
7824;BME280;3957;48.61947800;9.05303100;2022-09-03T05:18:27;95739.63;;;14.57;100.00
7824;BME280;3957;48.61947800;9.05303100;2022-09-03T05:19:48;95741.03;;;14.60;100.00
7824;BME280;3957;48.61947800;9.05303100;2022-09-03T05:21:16;95745.16;;;14.62;100.00
7824;BME280;3957;48.61947800;9.05303100;2022-09-03T05:22:37;95747.34;;;14.66;100.00
7824;BME280;3957;48.61947800;9.05303100;2022-09-03T05:23:58;95748.75;;;14.68;100.00
7824;BME280;3957;48.61947800;9.05303100;2022-09-03T05:25:19;95748.53;;;14.70;100.00
7824;BME280;3957;48.61947800;9.05303100;2022-09-03T05:26:40;95743.13;;;14.70;100.00
7824;BME280;3957;48.61947800;9.05303100;2022-09-03T05:28:01;95748.53;;;14.70;100.00
7824;BME280;3957;48.61947800;9.05303100;2022-09-03T05:29:22;95742.53;;;14.68;100.00
7824;BME280;3957;48.61947800;9.05303100;2022-09-03T05:30:43;95741.13;;;14.65;100.00
7824;BME280;3957;48.61947800;9.05303100;2022-09-03T05:32:04;95743.38;;;14.68;100.00
7824;BME280;3957;48.61947800;9.05303100;2022-09-03T05:33:26;95738.31;;;14.72;100.00
7824;BME280;3957;48.61947800;9.05303100;2022-09-03T05:34:47;95745.09;;;14.74;100.00
7824;BME280;3957;48.61947800;9.05303100;2022-09-03T05:36:13;95746.00;;;14.80;100.00
7824;BME280;3957;48.61947800;9.05303100;2022-09-03T05:37:34;95748.56;;;14.87;100.00
7824;BME280;3957;48.61947800;9.05303100;2022-09-03T05:38:55;95748.44;;;14.93;100.00
7824;BME280;3957;48.61947800;9.05303100;2022-09-03T05:40:17;95749.34;;;14.99;100.00
7824;BME280;3957;48.61947800;9.05303100;2022-09-03T05:41:37;95745.72;;;15.05;100.00
7824;BME280;3957;48.61947800;9.05303100;2022-09-03T05:42:58;95743.81;;;15.06;100.00
7824;BME280;3957;48.61947800;9.05303100;2022-09-03T05:44:19;95746.94;;;15.14;100.00
7824;BME280;3957;48.61947800;9.05303100;2022-09-03T05:45:43;95752.09;;;15.16;100.00
7824;BME280;3957;48.61947800;9.05303100;2022-09-03T05:47:04;95746.81;;;15.21;100.00
7824;BME280;3957;48.61947800;9.05303100;2022-09-03T05:48:25;95752.53;;;15.25;100.00
7824;BME280;3957;48.61947800;9.05303100;2022-09-03T05:49:46;95753.09;;;15.27;100.00
7824;BME280;3957;48.61947800;9.05303100;2022-09-03T05:51:09;95761.44;;;15.25;100.00
7824;BME280;3957;48.61947800;9.05303100;2022-09-03T05:52:30;95759.22;;;15.22;100.00
7824;BME280;3957;48.61947800;9.05303100;2022-09-03T05:53:51;95758.88;;;15.19;100.00
7824;BME280;3957;48.61947800;9.05303100;2022-09-03T05:55:13;95762.97;;;15.21;100.00
7824;BME280;3957;48.61947800;9.05303100;2022-09-03T05:56:35;95758.63;;;15.20;100.00
7824;BME280;3957;48.61947800;9.05303100;2022-09-03T05:57:56;95756.19;;;15.19;100.00
7824;BME280;3957;48.61947800;9.05303100;2022-09-03T05:59:16;95759.13;;;15.17;100.00
7824;BME280;3957;48.61947800;9.05303100;2022-09-03T06:00:37;95753.50;;;15.19;100.00
7824;BME280;3957;48.61947800;9.05303100;2022-09-03T06:01:58;95755.38;;;15.18;100.00
7824;BME280;3957;48.61947800;9.05303100;2022-09-03T06:03:18;95760.19;;;15.16;100.00
7824;BME280;3957;48.61947800;9.05303100;2022-09-03T06:04:39;95763.72;;;15.17;100.00
7824;BME280;3957;48.61947800;9.05303100;2022-09-03T06:06:00;95759.13;;;15.17;100.00
7824;BME280;3957;48.61947800;9.05303100;2022-09-03T06:07:21;95765.31;;;15.18;100.00
7824;BME280;3957;48.61947800;9.05303100;2022-09-03T06:08:41;95759.72;;;15.19;100.00
7824;BME280;3957;48.61947800;9.05303100;2022-09-03T06:10:04;95755.94;;;15.20;100.00
7824;BME280;3957;48.61947800;9.05303100;2022-09-03T06:11:27;95757.09;;;15.24;100.00
7824;BME280;3957;48.61947800;9.05303100;2022-09-03T06:12:50;95755.81;;;15.27;100.00
7824;BME280;3957;48.61947800;9.05303100;2022-09-03T06:14:13;95759.66;;;15.31;100.00
7824;BME280;3957;48.61947800;9.05303100;2022-09-03T06:15:33;95763.75;;;15.34;100.00
7824;BME280;3957;48.61947800;9.05303100;2022-09-03T06:16:54;95762.34;;;15.31;100.00
7824;BME280;3957;48.61947800;9.05303100;2022-09-03T06:18:16;95755.91;;;15.32;100.00
7824;BME280;3957;48.61947800;9.05303100;2022-09-03T06:19:37;95759.41;;;15.33;100.00
7824;BME280;3957;48.61947800;9.05303100;2022-09-03T06:21:00;95760.56;;;15.37;100.00
7824;BME280;3957;48.61947800;9.05303100;2022-09-03T06:22:21;95759.25;;;15.39;100.00
7824;BME280;3957;48.61947800;9.05303100;2022-09-03T06:23:49;95763.00;;;15.38;100.00
7824;BME280;3957;48.61947800;9.05303100;2022-09-03T06:25:11;95763.09;;;15.43;100.00
7824;BME280;3957;48.61947800;9.05303100;2022-09-03T06:26:32;95758.88;;;15.47;100.00
7824;BME280;3957;48.61947800;9.05303100;2022-09-03T06:27:53;95763.19;;;15.48;100.00
7824;BME280;3957;48.61947800;9.05303100;2022-09-03T06:29:14;95760.59;;;15.54;100.00
7824;BME280;3957;48.61947800;9.05303100;2022-09-03T06:30:35;95759.88;;;15.58;100.00
7824;BME280;3957;48.61947800;9.05303100;2022-09-03T06:31:56;95766.91;;;15.59;100.00
7824;BME280;3957;48.61947800;9.05303100;2022-09-03T06:33:19;95769.00;;;15.57;100.00
7824;BME280;3957;48.61947800;9.05303100;2022-09-03T06:34:40;95765.91;;;15.65;100.00
7824;BME280;3957;48.61947800;9.05303100;2022-09-03T06:36:03;95761.41;;;15.71;100.00
7824;BME280;3957;48.61947800;9.05303100;2022-09-03T06:37:24;95769.84;;;15.75;100.00
7824;BME280;3957;48.61947800;9.05303100;2022-09-03T06:38:45;95764.22;;;15.76;100.00
7824;BME280;3957;48.61947800;9.05303100;2022-09-03T06:40:07;95765.38;;;15.80;100.00
7824;BME280;3957;48.61947800;9.05303100;2022-09-03T06:41:32;95761.69;;;15.87;100.00
7824;BME280;3957;48.61947800;9.05303100;2022-09-03T06:42:55;95760.22;;;15.96;100.00
7824;BME280;3957;48.61947800;9.05303100;2022-09-03T06:44:21;95756.06;;;16.05;100.00
7824;BME280;3957;48.61947800;9.05303100;2022-09-03T06:45:42;95757.19;;;16.09;100.00
7824;BME280;3957;48.61947800;9.05303100;2022-09-03T06:47:03;95757.03;;;16.16;100.00
7824;BME280;3957;48.61947800;9.05303100;2022-09-03T06:48:25;95751.13;;;16.19;100.00
7824;BME280;3957;48.61947800;9.05303100;2022-09-03T06:49:46;95763.06;;;16.23;100.00
7824;BME280;3957;48.61947800;9.05303100;2022-09-03T06:51:09;95761.00;;;16.30;100.00
7824;BME280;3957;48.61947800;9.05303100;2022-09-03T06:52:30;95760.28;;;16.35;100.00
7824;BME280;3957;48.61947800;9.05303100;2022-09-03T06:53:53;95755.34;;;16.32;100.00
7824;BME280;3957;48.61947800;9.05303100;2022-09-03T06:55:14;95759.44;;;16.35;100.00
7824;BME280;3957;48.61947800;9.05303100;2022-09-03T06:56:37;95754.31;;;16.33;100.00
7824;BME280;3957;48.61947800;9.05303100;2022-09-03T06:57:58;95761.22;;;16.46;100.00
7824;BME280;3957;48.61947800;9.05303100;2022-09-03T06:59:19;95758.09;;;16.54;100.00
7824;BME280;3957;48.61947800;9.05303100;2022-09-03T07:00:39;95757.34;;;16.59;100.00
7824;BME280;3957;48.61947800;9.05303100;2022-09-03T07:02:00;95752.34;;;16.67;100.00
7824;BME280;3957;48.61947800;9.05303100;2022-09-03T07:03:23;95759.19;;;16.75;100.00
7824;BME280;3957;48.61947800;9.05303100;2022-09-03T07:04:43;95756.28;;;16.82;100.00
7824;BME280;3957;48.61947800;9.05303100;2022-09-03T07:06:06;95761.47;;;16.83;100.00
7824;BME280;3957;48.61947800;9.05303100;2022-09-03T07:07:27;95756.84;;;16.84;100.00
7824;BME280;3957;48.61947800;9.05303100;2022-09-03T07:08:48;95760.06;;;16.81;99.92
7824;BME280;3957;48.61947800;9.05303100;2022-09-03T07:10:09;95761.38;;;16.78;99.87
7824;BME280;3957;48.61947800;9.05303100;2022-09-03T07:11:31;95758.63;;;16.73;99.40
7824;BME280;3957;48.61947800;9.05303100;2022-09-03T07:12:55;95756.16;;;16.72;99.17
7824;BME280;3957;48.61947800;9.05303100;2022-09-03T07:14:17;95758.09;;;16.76;98.90
7824;BME280;3957;48.61947800;9.05303100;2022-09-03T07:15:38;95765.16;;;16.77;98.64
7824;BME280;3957;48.61947800;9.05303100;2022-09-03T07:17:00;95762.44;;;16.77;98.75
7824;BME280;3957;48.61947800;9.05303100;2022-09-03T07:18:21;95754.97;;;16.84;98.61
7824;BME280;3957;48.61947800;9.05303100;2022-09-03T07:19:42;95762.38;;;16.89;98.13